ROA2054 SVMI-SKBO
Flight info
| Callsign | ROA2054 |
|---|---|
| Flight time | 1h 38m |
| Altitude | 36000 |
| Route | BUTSA2 PBL UP533 KIKAS UW44 BUV DCT VULAM VULAM7D |
| Aircraft | B738/M-SDE2E3FGHIRWXY/LB1 |
Departure
| Time | 2026-05-08 01:04 |
|---|---|
| Airport | Maiquetía Simón Bolívar International Airport (SVMI) |
Arrival
| Time | 2026-05-08 02:42 |
|---|---|
| Airport | El Dorado International Airport (SKBO) |
| Time | Latitude | Longitude | Altitude | Speed | Heading |
|---|---|---|---|---|---|
| 2026-05-08 00:35 | 10.59837 | -66.99928 | 220 ft | 0 kts | 178° |
| 2026-05-08 00:50 | 10.59858 | -66.99928 | 220 ft | 4 kts | 178° |
| 2026-05-08 00:50 | 10.59885 | -66.99929 | 222 ft | 4 kts | 178° |
| 2026-05-08 00:50 | 10.59905 | -66.99930 | 220 ft | 2 kts | 193° |
| 2026-05-08 00:50 | 10.59917 | -66.99926 | 220 ft | 3 kts | 221° |
| 2026-05-08 00:51 | 10.59930 | -66.99910 | 220 ft | 2 kts | 205° |
| 2026-05-08 00:51 | 10.59945 | -66.99910 | 220 ft | 3 kts | 171° |
| 2026-05-08 00:51 | 10.59968 | -66.99912 | 219 ft | 4 kts | 181° |
| 2026-05-08 00:51 | 10.59995 | -66.99912 | 219 ft | 4 kts | 177° |
| 2026-05-08 00:52 | 10.60022 | -66.99914 | 219 ft | 4 kts | 177° |
| 2026-05-08 00:52 | 10.60045 | -66.99915 | 219 ft | 3 kts | 178° |
| 2026-05-08 00:52 | 10.60059 | -66.99915 | 219 ft | 2 kts | 179° |
| 2026-05-08 00:52 | 10.60070 | -66.99915 | 219 ft | 2 kts | 180° |
| 2026-05-08 00:53 | 10.60079 | -66.99915 | 223 ft | 0 kts | 181° |
| 2026-05-08 00:55 | 10.60065 | -66.99917 | 218 ft | 3 kts | 192° |
| 2026-05-08 00:55 | 10.60046 | -66.99930 | 219 ft | 4 kts | 221° |
| 2026-05-08 00:55 | 10.60034 | -66.99955 | 222 ft | 4 kts | 257° |
| 2026-05-08 00:55 | 10.60032 | -66.99986 | 219 ft | 4 kts | 268° |
| 2026-05-08 00:56 | 10.60030 | -67.00019 | 220 ft | 5 kts | 265° |
| 2026-05-08 00:56 | 10.60028 | -67.00056 | 221 ft | 5 kts | 267° |
| 2026-05-08 00:56 | 10.60027 | -67.00095 | 221 ft | 6 kts | 268° |
| 2026-05-08 00:56 | 10.60026 | -67.00138 | 222 ft | 6 kts | 268° |
| 2026-05-08 00:57 | 10.60024 | -67.00184 | 223 ft | 7 kts | 268° |
| 2026-05-08 00:57 | 10.60022 | -67.00234 | 224 ft | 7 kts | 268° |
| 2026-05-08 00:57 | 10.60012 | -67.00285 | 224 ft | 8 kts | 252° |
| 2026-05-08 00:57 | 10.60003 | -67.00340 | 225 ft | 8 kts | 266° |
| 2026-05-08 00:58 | 10.60001 | -67.00400 | 226 ft | 9 kts | 268° |
| 2026-05-08 00:58 | 10.59999 | -67.00462 | 227 ft | 9 kts | 268° |
| 2026-05-08 00:58 | 10.59996 | -67.00525 | 228 ft | 9 kts | 268° |
| 2026-05-08 00:58 | 10.59994 | -67.00590 | 229 ft | 9 kts | 269° |
| 2026-05-08 00:59 | 10.59993 | -67.00655 | 230 ft | 9 kts | 268° |
| 2026-05-08 00:59 | 10.59991 | -67.00721 | 232 ft | 9 kts | 268° |
| 2026-05-08 00:59 | 10.59989 | -67.00788 | 235 ft | 10 kts | 268° |
| 2026-05-08 00:59 | 10.59986 | -67.00857 | 234 ft | 10 kts | 268° |
| 2026-05-08 01:00 | 10.59984 | -67.00929 | 235 ft | 10 kts | 268° |
| 2026-05-08 01:00 | 10.59982 | -67.01001 | 236 ft | 10 kts | 268° |
| 2026-05-08 01:00 | 10.59980 | -67.01072 | 238 ft | 10 kts | 268° |
| 2026-05-08 01:00 | 10.59978 | -67.01143 | 239 ft | 10 kts | 268° |
| 2026-05-08 01:01 | 10.59982 | -67.01213 | 241 ft | 10 kts | 293° |
| 2026-05-08 01:01 | 10.60043 | -67.01242 | 241 ft | 11 kts | 353° |
| 2026-05-08 01:01 | 10.60116 | -67.01245 | 240 ft | 5 kts | 358° |
| 2026-05-08 01:01 | 10.60118 | -67.01245 | 240 ft | 0 kts | 358° |
| 2026-05-08 01:02 | 10.60120 | -67.01245 | 240 ft | 3 kts | 358° |
| 2026-05-08 01:02 | 10.60170 | -67.01247 | 238 ft | 12 kts | 0° |
| 2026-05-08 01:02 | 10.60215 | -67.01173 | 238 ft | 13 kts | 86° |
| 2026-05-08 01:03 | 10.60219 | -67.01117 | 233 ft | 8 kts | 89° |
| 2026-05-08 01:03 | 10.60219 | -67.01114 | 233 ft | 2 kts | 89° |
| 2026-05-08 01:03 | 10.60226 | -67.00856 | 228 ft | 72 kts | 88° |
| 2026-05-08 01:03 | 10.60247 | -67.00129 | 216 ft | 131 kts | 88° |
| 2026-05-08 01:04 | 10.60258 | -66.99041 | 286 ft | 168 kts | 89° |
| 2026-05-08 01:04 | 10.60286 | -66.97887 | 964 ft | 159 kts | 90° |
| 2026-05-08 01:04 | 10.60340 | -66.96817 | 1679 ft | 157 kts | 81° |
| 2026-05-08 01:04 | 10.60632 | -66.95676 | 2091 ft | 172 kts | 76° |
| 2026-05-08 01:05 | 10.60959 | -66.94460 | 2473 ft | 185 kts | 78° |
| 2026-05-08 01:05 | 10.61250 | -66.93135 | 2847 ft | 199 kts | 78° |
| 2026-05-08 01:05 | 10.61642 | -66.91726 | 3179 ft | 216 kts | 60° |
| 2026-05-08 01:05 | 10.62732 | -66.90633 | 3714 ft | 231 kts | 28° |
| 2026-05-08 01:06 | 10.64347 | -66.90237 | 4252 ft | 250 kts | 7° |
| 2026-05-08 01:06 | 10.66134 | -66.90171 | 4679 ft | 262 kts | 4° |
| 2026-05-08 01:06 | 10.67955 | -66.90141 | 5040 ft | 267 kts | 4° |
| 2026-05-08 01:06 | 10.69829 | -66.90099 | 5311 ft | 270 kts | 4° |
| 2026-05-08 01:07 | 10.71710 | -66.90047 | 5518 ft | 272 kts | 4° |
| 2026-05-08 01:07 | 10.73613 | -66.89990 | 5699 ft | 274 kts | 4° |
| 2026-05-08 01:07 | 10.75517 | -66.89930 | 5863 ft | 274 kts | 4° |
| 2026-05-08 01:07 | 10.77427 | -66.89868 | 6001 ft | 275 kts | 4° |
| 2026-05-08 01:08 | 10.79353 | -66.89803 | 6119 ft | 276 kts | 4° |
| 2026-05-08 01:08 | 10.81251 | -66.89958 | 6228 ft | 280 kts | 344° |
| 2026-05-08 01:08 | 10.82931 | -66.90969 | 6566 ft | 286 kts | 316° |
| 2026-05-08 01:08 | 10.83980 | -66.92694 | 7087 ft | 291 kts | 289° |
| 2026-05-08 01:09 | 10.84261 | -66.94741 | 7659 ft | 295 kts | 272° |
| 2026-05-08 01:09 | 10.84264 | -66.96843 | 8217 ft | 298 kts | 270° |
| 2026-05-08 01:09 | 10.84235 | -66.98962 | 8761 ft | 301 kts | 269° |
| 2026-05-08 01:09 | 10.84209 | -67.01102 | 9315 ft | 303 kts | 269° |
| 2026-05-08 01:10 | 10.84186 | -67.03230 | 9882 ft | 305 kts | 269° |
| 2026-05-08 01:10 | 10.84164 | -67.05402 | 10439 ft | 308 kts | 269° |
| 2026-05-08 01:10 | 10.84146 | -67.07595 | 10972 ft | 311 kts | 270° |
| 2026-05-08 01:10 | 10.84131 | -67.09805 | 11492 ft | 314 kts | 270° |
| 2026-05-08 01:11 | 10.84119 | -67.12039 | 11980 ft | 317 kts | 270° |
| 2026-05-08 01:11 | 10.84113 | -67.14293 | 12476 ft | 320 kts | 270° |
| 2026-05-08 01:11 | 10.84105 | -67.16568 | 12976 ft | 321 kts | 270° |
| 2026-05-08 01:11 | 10.84097 | -67.18853 | 13500 ft | 323 kts | 270° |
| 2026-05-08 01:12 | 10.83909 | -67.21101 | 14049 ft | 324 kts | 259° |
| 2026-05-08 01:12 | 10.83382 | -67.23348 | 14615 ft | 327 kts | 255° |
| 2026-05-08 01:12 | 10.82785 | -67.25595 | 15190 ft | 329 kts | 255° |
| 2026-05-08 01:12 | 10.82175 | -67.27846 | 15796 ft | 330 kts | 255° |
| 2026-05-08 01:13 | 10.81558 | -67.30110 | 16395 ft | 332 kts | 255° |
| 2026-05-08 01:13 | 10.80944 | -67.32352 | 17009 ft | 334 kts | 255° |
| 2026-05-08 01:13 | 10.80313 | -67.34643 | 17635 ft | 337 kts | 255° |
| 2026-05-08 01:13 | 10.79674 | -67.36955 | 18271 ft | 339 kts | 255° |
| 2026-05-08 01:14 | 10.79032 | -67.39274 | 18920 ft | 341 kts | 255° |
| 2026-05-08 01:14 | 10.78387 | -67.41611 | 19564 ft | 343 kts | 255° |
| 2026-05-08 01:14 | 10.77743 | -67.43936 | 20192 ft | 345 kts | 255° |
| 2026-05-08 01:14 | 10.77088 | -67.46303 | 20817 ft | 347 kts | 255° |
| 2026-05-08 01:15 | 10.76429 | -67.48685 | 21422 ft | 350 kts | 255° |
| 2026-05-08 01:15 | 10.75775 | -67.51045 | 22009 ft | 352 kts | 255° |
| 2026-05-08 01:15 | 10.75109 | -67.53447 | 22597 ft | 354 kts | 255° |
| 2026-05-08 01:15 | 10.74439 | -67.55864 | 23165 ft | 356 kts | 255° |
| 2026-05-08 01:16 | 10.73764 | -67.58302 | 23714 ft | 358 kts | 254° |
| 2026-05-08 01:16 | 10.73082 | -67.60760 | 24263 ft | 360 kts | 254° |
| 2026-05-08 01:16 | 10.72408 | -67.63191 | 24782 ft | 362 kts | 255° |
| 2026-05-08 01:16 | 10.71722 | -67.65663 | 25290 ft | 365 kts | 255° |
| 2026-05-08 01:17 | 10.71030 | -67.68157 | 25760 ft | 367 kts | 255° |
| 2026-05-08 01:17 | 10.70329 | -67.70681 | 26231 ft | 369 kts | 255° |
| 2026-05-08 01:17 | 10.69637 | -67.73170 | 26661 ft | 371 kts | 255° |
| 2026-05-08 01:17 | 10.68931 | -67.75712 | 27097 ft | 374 kts | 255° |
| 2026-05-08 01:18 | 10.68221 | -67.78267 | 27532 ft | 376 kts | 255° |
| 2026-05-08 01:18 | 10.67505 | -67.80844 | 27950 ft | 378 kts | 255° |
| 2026-05-08 01:18 | 10.66796 | -67.83392 | 28342 ft | 380 kts | 255° |
| 2026-05-08 01:18 | 10.66034 | -67.85986 | 28726 ft | 383 kts | 250° |
| 2026-05-08 01:19 | 10.64839 | -67.88422 | 29125 ft | 387 kts | 238° |
| 2026-05-08 01:19 | 10.63203 | -67.90618 | 29521 ft | 391 kts | 232° |
| 2026-05-08 01:19 | 10.61436 | -67.92726 | 29889 ft | 393 kts | 231° |
| 2026-05-08 01:19 | 10.59632 | -67.94830 | 30244 ft | 395 kts | 231° |
| 2026-05-08 01:20 | 10.57841 | -67.96908 | 30588 ft | 397 kts | 231° |
| 2026-05-08 01:20 | 10.56012 | -67.99027 | 30939 ft | 399 kts | 231° |
| 2026-05-08 01:20 | 10.54176 | -68.01148 | 31274 ft | 400 kts | 231° |
| 2026-05-08 01:20 | 10.52326 | -68.03282 | 31531 ft | 404 kts | 231° |
| 2026-05-08 01:21 | 10.50456 | -68.05436 | 31791 ft | 406 kts | 231° |
| 2026-05-08 01:21 | 10.48572 | -68.07601 | 32060 ft | 408 kts | 231° |
| 2026-05-08 01:21 | 10.46710 | -68.09747 | 32325 ft | 409 kts | 231° |
| 2026-05-08 01:21 | 10.44831 | -68.11919 | 32590 ft | 411 kts | 231° |
| 2026-05-08 01:22 | 10.42932 | -68.14112 | 32858 ft | 412 kts | 231° |
| 2026-05-08 01:22 | 10.41030 | -68.16306 | 33130 ft | 414 kts | 231° |
| 2026-05-08 01:22 | 10.39121 | -68.18506 | 33395 ft | 415 kts | 231° |
| 2026-05-08 01:22 | 10.37202 | -68.20720 | 33660 ft | 416 kts | 231° |
| 2026-05-08 01:23 | 10.35282 | -68.22934 | 33907 ft | 418 kts | 231° |
| 2026-05-08 01:23 | 10.31414 | -68.27392 | 33993 ft | 424 kts | 231° |
| 2026-05-08 01:24 | 10.27516 | -68.31882 | 33997 ft | 427 kts | 231° |
| 2026-05-08 01:24 | 10.23583 | -68.36412 | 33979 ft | 427 kts | 231° |
| 2026-05-08 01:25 | 10.19651 | -68.40937 | 33998 ft | 427 kts | 231° |
| 2026-05-08 01:25 | 10.15711 | -68.45471 | 33997 ft | 427 kts | 231° |
| 2026-05-08 01:26 | 10.11780 | -68.49991 | 33995 ft | 427 kts | 231° |
| 2026-05-08 01:26 | 10.07865 | -68.54494 | 33996 ft | 428 kts | 231° |
| 2026-05-08 01:27 | 10.03919 | -68.59029 | 33993 ft | 428 kts | 231° |
| 2026-05-08 01:27 | 9.99995 | -68.63546 | 33987 ft | 428 kts | 231° |
| 2026-05-08 01:28 | 9.96053 | -68.68089 | 33991 ft | 428 kts | 231° |
| 2026-05-08 01:28 | 9.92112 | -68.72627 | 33985 ft | 427 kts | 231° |
| 2026-05-08 01:29 | 9.88205 | -68.77127 | 33987 ft | 427 kts | 231° |
| 2026-05-08 01:29 | 9.84257 | -68.81670 | 33991 ft | 428 kts | 230° |
| 2026-05-08 01:30 | 9.80310 | -68.86211 | 33994 ft | 429 kts | 231° |
| 2026-05-08 01:30 | 9.76355 | -68.90758 | 33991 ft | 430 kts | 231° |
| 2026-05-08 01:31 | 9.72391 | -68.95315 | 33982 ft | 430 kts | 231° |
| 2026-05-08 01:31 | 9.68438 | -68.99857 | 33983 ft | 431 kts | 231° |
| 2026-05-08 01:32 | 9.64460 | -69.04427 | 33981 ft | 432 kts | 230° |
| 2026-05-08 01:32 | 9.60496 | -69.08983 | 33981 ft | 433 kts | 231° |
| 2026-05-08 01:33 | 9.56504 | -69.13571 | 33974 ft | 434 kts | 231° |
| 2026-05-08 01:33 | 9.52498 | -69.18173 | 33971 ft | 434 kts | 230° |
| 2026-05-08 01:34 | 9.48523 | -69.22738 | 33971 ft | 434 kts | 230° |
| 2026-05-08 01:34 | 9.44517 | -69.27337 | 33971 ft | 435 kts | 230° |
| 2026-05-08 01:35 | 9.40524 | -69.31918 | 33971 ft | 436 kts | 230° |
| 2026-05-08 01:35 | 9.36511 | -69.36522 | 33972 ft | 435 kts | 230° |
| 2026-05-08 01:36 | 9.32495 | -69.41126 | 33971 ft | 435 kts | 230° |
| 2026-05-08 01:36 | 9.28503 | -69.45702 | 33964 ft | 435 kts | 230° |
| 2026-05-08 01:37 | 9.25166 | -69.49525 | 33962 ft | 435 kts | 230° |
| 2026-05-08 01:37 | 9.21146 | -69.54130 | 33965 ft | 435 kts | 230° |
| 2026-05-08 01:38 | 9.16475 | -69.59477 | 33962 ft | 435 kts | 230° |
| 2026-05-08 01:38 | 9.13134 | -69.63300 | 33968 ft | 434 kts | 230° |
| 2026-05-08 01:39 | 9.09121 | -69.67893 | 33969 ft | 434 kts | 230° |
| 2026-05-08 01:39 | 9.05131 | -69.72454 | 33965 ft | 434 kts | 230° |
| 2026-05-08 01:40 | 9.01120 | -69.77042 | 33960 ft | 434 kts | 230° |
| 2026-05-08 01:40 | 8.97117 | -69.81616 | 33954 ft | 433 kts | 230° |
| 2026-05-08 01:41 | 8.93139 | -69.86162 | 33958 ft | 433 kts | 230° |
| 2026-05-08 01:41 | 8.89171 | -69.90692 | 33952 ft | 432 kts | 230° |
| 2026-05-08 01:42 | 8.85186 | -69.95242 | 33956 ft | 431 kts | 230° |
| 2026-05-08 01:42 | 8.81213 | -69.99776 | 33946 ft | 430 kts | 230° |
| 2026-05-08 01:43 | 8.77232 | -70.04318 | 33944 ft | 430 kts | 230° |
| 2026-05-08 01:43 | 8.73280 | -70.08826 | 33949 ft | 431 kts | 230° |
| 2026-05-08 01:44 | 8.69285 | -70.13380 | 33945 ft | 432 kts | 230° |
| 2026-05-08 01:44 | 8.65318 | -70.17900 | 33947 ft | 432 kts | 230° |
| 2026-05-08 01:45 | 8.61328 | -70.22437 | 33937 ft | 431 kts | 229° |
| 2026-05-08 01:45 | 8.57260 | -70.26898 | 33935 ft | 430 kts | 229° |
| 2026-05-08 01:46 | 8.53215 | -70.31337 | 33935 ft | 429 kts | 229° |
| 2026-05-08 01:46 | 8.49156 | -70.35791 | 33936 ft | 429 kts | 229° |
| 2026-05-08 01:47 | 8.45127 | -70.40210 | 33935 ft | 429 kts | 229° |
| 2026-05-08 01:47 | 8.41095 | -70.44632 | 33934 ft | 429 kts | 229° |
| 2026-05-08 01:48 | 8.35040 | -70.51267 | 33933 ft | 429 kts | 229° |
| 2026-05-08 01:48 | 8.30999 | -70.55695 | 33926 ft | 429 kts | 229° |
| 2026-05-08 01:49 | 8.26918 | -70.60164 | 33926 ft | 429 kts | 229° |
| 2026-05-08 01:49 | 8.22896 | -70.64568 | 33925 ft | 430 kts | 229° |
| 2026-05-08 01:50 | 8.18824 | -70.69025 | 33923 ft | 431 kts | 229° |
| 2026-05-08 01:50 | 8.14772 | -70.73458 | 33928 ft | 431 kts | 228° |
| 2026-05-08 01:51 | 8.10705 | -70.77906 | 33932 ft | 431 kts | 229° |
| 2026-05-08 01:51 | 8.06634 | -70.82357 | 33934 ft | 432 kts | 229° |
| 2026-05-08 01:52 | 8.02554 | -70.86816 | 33933 ft | 432 kts | 229° |
| 2026-05-08 01:52 | 7.98483 | -70.91265 | 33935 ft | 433 kts | 229° |
| 2026-05-08 01:53 | 7.94394 | -70.95732 | 33933 ft | 432 kts | 229° |
| 2026-05-08 01:53 | 7.90321 | -71.00180 | 33936 ft | 430 kts | 228° |
| 2026-05-08 01:54 | 7.86290 | -71.04580 | 33944 ft | 430 kts | 228° |
| 2026-05-08 01:54 | 7.82243 | -71.08997 | 33954 ft | 430 kts | 228° |
| 2026-05-08 01:55 | 7.78175 | -71.13436 | 33949 ft | 431 kts | 228° |
| 2026-05-08 01:55 | 7.74117 | -71.17862 | 33947 ft | 432 kts | 228° |
| 2026-05-08 01:56 | 7.70028 | -71.22319 | 33945 ft | 432 kts | 228° |
| 2026-05-08 01:56 | 7.65936 | -71.26780 | 33947 ft | 433 kts | 228° |
| 2026-05-08 01:57 | 7.61858 | -71.31224 | 33955 ft | 433 kts | 228° |
| 2026-05-08 01:57 | 7.57763 | -71.35685 | 33949 ft | 434 kts | 228° |
| 2026-05-08 01:58 | 7.53651 | -71.40163 | 33944 ft | 434 kts | 228° |
| 2026-05-08 01:58 | 7.49562 | -71.44615 | 33955 ft | 434 kts | 228° |
| 2026-05-08 01:59 | 7.45450 | -71.49090 | 33945 ft | 434 kts | 228° |
| 2026-05-08 01:59 | 7.41365 | -71.53535 | 33948 ft | 434 kts | 228° |
| 2026-05-08 02:00 | 7.37260 | -71.58000 | 33954 ft | 434 kts | 228° |
| 2026-05-08 02:00 | 7.33149 | -71.62470 | 33945 ft | 434 kts | 228° |
| 2026-05-08 02:01 | 7.29035 | -71.66942 | 33944 ft | 435 kts | 228° |
| 2026-05-08 02:01 | 7.24953 | -71.71379 | 33944 ft | 434 kts | 228° |
| 2026-05-08 02:02 | 7.20837 | -71.75851 | 33943 ft | 434 kts | 228° |
| 2026-05-08 02:02 | 7.16735 | -71.80307 | 33958 ft | 433 kts | 228° |
| 2026-05-08 02:03 | 7.12633 | -71.84760 | 33956 ft | 433 kts | 228° |
| 2026-05-08 02:03 | 7.08528 | -71.89217 | 33962 ft | 433 kts | 229° |
| 2026-05-08 02:04 | 7.04462 | -71.93629 | 33949 ft | 432 kts | 228° |
| 2026-05-08 02:04 | 7.00435 | -71.98125 | 33950 ft | 430 kts | 232° |
| 2026-05-08 02:05 | 6.96744 | -72.02887 | 33945 ft | 430 kts | 233° |
| 2026-05-08 02:05 | 6.93084 | -72.07630 | 33961 ft | 431 kts | 233° |
| 2026-05-08 02:06 | 6.89380 | -72.12411 | 33956 ft | 432 kts | 233° |
| 2026-05-08 02:06 | 6.85672 | -72.17183 | 33958 ft | 433 kts | 233° |
| 2026-05-08 02:07 | 6.81982 | -72.21919 | 33951 ft | 432 kts | 232° |
| 2026-05-08 02:07 | 6.78266 | -72.26685 | 33967 ft | 431 kts | 232° |
| 2026-05-08 02:08 | 6.74579 | -72.31410 | 33975 ft | 431 kts | 233° |
| 2026-05-08 02:08 | 6.70873 | -72.36159 | 33978 ft | 431 kts | 233° |
| 2026-05-08 02:09 | 6.67174 | -72.40898 | 33988 ft | 430 kts | 233° |
| 2026-05-08 02:09 | 6.63472 | -72.45640 | 33997 ft | 430 kts | 232° |
| 2026-05-08 02:10 | 6.59778 | -72.50370 | 34000 ft | 430 kts | 232° |
| 2026-05-08 02:10 | 6.56099 | -72.55078 | 33999 ft | 429 kts | 233° |
| 2026-05-08 02:11 | 6.52400 | -72.59814 | 34007 ft | 429 kts | 232° |
| 2026-05-08 02:11 | 6.48701 | -72.64546 | 34022 ft | 430 kts | 232° |
| 2026-05-08 02:12 | 6.45007 | -72.69272 | 34032 ft | 430 kts | 232° |
| 2026-05-08 02:12 | 6.41319 | -72.73987 | 34048 ft | 430 kts | 232° |
| 2026-05-08 02:13 | 6.37619 | -72.78718 | 34065 ft | 430 kts | 232° |
| 2026-05-08 02:13 | 6.33932 | -72.83429 | 34063 ft | 430 kts | 232° |
| 2026-05-08 02:14 | 6.30219 | -72.88173 | 34060 ft | 430 kts | 232° |
| 2026-05-08 02:14 | 6.26533 | -72.92868 | 34073 ft | 430 kts | 232° |
| 2026-05-08 02:15 | 6.22823 | -72.97584 | 34074 ft | 430 kts | 232° |
| 2026-05-08 02:15 | 6.19109 | -73.02304 | 34075 ft | 430 kts | 232° |
| 2026-05-08 02:16 | 6.15422 | -73.06990 | 34081 ft | 430 kts | 232° |
| 2026-05-08 02:16 | 6.11706 | -73.11711 | 34081 ft | 431 kts | 232° |
| 2026-05-08 02:17 | 6.07978 | -73.16445 | 34085 ft | 431 kts | 232° |
| 2026-05-08 02:17 | 6.04273 | -73.21150 | 34094 ft | 431 kts | 232° |
| 2026-05-08 02:18 | 6.00542 | -73.25888 | 34060 ft | 431 kts | 232° |
| 2026-05-08 02:18 | 5.96816 | -73.30616 | 34061 ft | 430 kts | 232° |
| 2026-05-08 02:19 | 5.93122 | -73.35302 | 34067 ft | 429 kts | 232° |
| 2026-05-08 02:19 | 5.89401 | -73.40022 | 34074 ft | 429 kts | 232° |
| 2026-05-08 02:20 | 5.85713 | -73.44700 | 34077 ft | 429 kts | 232° |
| 2026-05-08 02:20 | 5.82004 | -73.49403 | 34080 ft | 429 kts | 232° |
| 2026-05-08 02:21 | 5.80132 | -73.51776 | 33669 ft | 433 kts | 232° |
| 2026-05-08 02:21 | 5.78264 | -73.54144 | 33155 ft | 432 kts | 232° |
| 2026-05-08 02:21 | 5.76422 | -73.56478 | 32652 ft | 430 kts | 232° |
| 2026-05-08 02:21 | 5.74565 | -73.58831 | 32140 ft | 428 kts | 232° |
| 2026-05-08 02:22 | 5.72710 | -73.61182 | 31628 ft | 427 kts | 231° |
| 2026-05-08 02:22 | 5.71488 | -73.62731 | 31293 ft | 426 kts | 231° |
| 2026-05-08 02:22 | 5.69647 | -73.65062 | 30796 ft | 425 kts | 231° |
| 2026-05-08 02:22 | 5.67205 | -73.68156 | 30132 ft | 425 kts | 231° |
| 2026-05-08 02:23 | 5.65967 | -73.69724 | 29799 ft | 423 kts | 231° |
| 2026-05-08 02:23 | 5.64139 | -73.72039 | 29303 ft | 422 kts | 231° |
| 2026-05-08 02:23 | 5.62341 | -73.74316 | 28815 ft | 420 kts | 231° |
| 2026-05-08 02:23 | 5.60525 | -73.76615 | 28321 ft | 419 kts | 231° |
| 2026-05-08 02:24 | 5.58718 | -73.78903 | 27828 ft | 417 kts | 231° |
| 2026-05-08 02:24 | 5.56912 | -73.81188 | 27348 ft | 415 kts | 231° |
| 2026-05-08 02:24 | 5.55120 | -73.83458 | 26879 ft | 413 kts | 231° |
| 2026-05-08 02:24 | 5.53444 | -73.85787 | 26442 ft | 410 kts | 240° |
| 2026-05-08 02:25 | 5.52173 | -73.88306 | 25951 ft | 408 kts | 244° |
| 2026-05-08 02:25 | 5.50984 | -73.90860 | 25449 ft | 400 kts | 245° |
| 2026-05-08 02:25 | 5.49828 | -73.93365 | 24978 ft | 392 kts | 245° |
| 2026-05-08 02:25 | 5.48696 | -73.95829 | 24518 ft | 384 kts | 245° |
| 2026-05-08 02:26 | 5.47587 | -73.98250 | 24064 ft | 377 kts | 245° |
| 2026-05-08 02:26 | 5.46505 | -74.00627 | 23618 ft | 371 kts | 245° |
| 2026-05-08 02:26 | 5.45440 | -74.02970 | 23184 ft | 365 kts | 245° |
| 2026-05-08 02:26 | 5.44404 | -74.05247 | 22762 ft | 360 kts | 245° |
| 2026-05-08 02:27 | 5.43366 | -74.07528 | 22334 ft | 356 kts | 245° |
| 2026-05-08 02:27 | 5.42339 | -74.09785 | 21929 ft | 352 kts | 245° |
| 2026-05-08 02:27 | 5.41337 | -74.11986 | 21547 ft | 347 kts | 245° |
| 2026-05-08 02:27 | 5.40334 | -74.14188 | 21123 ft | 346 kts | 245° |
| 2026-05-08 02:28 | 5.39329 | -74.16398 | 20681 ft | 346 kts | 245° |
| 2026-05-08 02:28 | 5.38339 | -74.18572 | 20214 ft | 347 kts | 245° |
| 2026-05-08 02:28 | 5.37340 | -74.20765 | 19782 ft | 344 kts | 245° |
| 2026-05-08 02:28 | 5.36346 | -74.22951 | 19359 ft | 343 kts | 245° |
| 2026-05-08 02:29 | 5.35354 | -74.25124 | 18940 ft | 341 kts | 245° |
| 2026-05-08 02:29 | 5.34373 | -74.27280 | 18530 ft | 339 kts | 245° |
| 2026-05-08 02:29 | 5.33395 | -74.29429 | 18120 ft | 338 kts | 245° |
| 2026-05-08 02:29 | 5.32416 | -74.31576 | 17705 ft | 339 kts | 245° |
| 2026-05-08 02:30 | 5.31437 | -74.33721 | 17295 ft | 343 kts | 245° |
| 2026-05-08 02:30 | 5.30444 | -74.35900 | 16858 ft | 342 kts | 244° |
| 2026-05-08 02:30 | 5.29221 | -74.37932 | 16480 ft | 338 kts | 231° |
| 2026-05-08 02:30 | 5.27602 | -74.39595 | 16107 ft | 332 kts | 220° |
| 2026-05-08 02:31 | 5.25814 | -74.41046 | 15656 ft | 329 kts | 217° |
| 2026-05-08 02:31 | 5.24004 | -74.42438 | 15237 ft | 327 kts | 217° |
| 2026-05-08 02:31 | 5.22190 | -74.43822 | 14817 ft | 324 kts | 217° |
| 2026-05-08 02:31 | 5.20405 | -74.45178 | 14435 ft | 321 kts | 217° |
| 2026-05-08 02:32 | 5.18648 | -74.46510 | 14059 ft | 319 kts | 217° |
| 2026-05-08 02:32 | 5.16876 | -74.47851 | 13680 ft | 316 kts | 217° |
| 2026-05-08 02:32 | 5.15122 | -74.49174 | 13288 ft | 315 kts | 217° |
| 2026-05-08 02:32 | 5.13365 | -74.50478 | 12975 ft | 311 kts | 213° |
| 2026-05-08 02:33 | 5.11409 | -74.51338 | 12859 ft | 305 kts | 192° |
| 2026-05-08 02:33 | 5.09342 | -74.51416 | 12741 ft | 297 kts | 170° |
| 2026-05-08 02:33 | 5.07408 | -74.50797 | 12636 ft | 288 kts | 153° |
| 2026-05-08 02:33 | 5.05708 | -74.49756 | 12511 ft | 284 kts | 143° |
| 2026-05-08 02:34 | 5.04147 | -74.48554 | 12337 ft | 282 kts | 140° |
| 2026-05-08 02:34 | 5.02625 | -74.47315 | 12213 ft | 280 kts | 140° |
| 2026-05-08 02:34 | 5.01127 | -74.46083 | 12170 ft | 276 kts | 140° |
| 2026-05-08 02:34 | 4.99656 | -74.44869 | 12183 ft | 278 kts | 140° |
| 2026-05-08 02:35 | 4.98157 | -74.43627 | 12191 ft | 277 kts | 139° |
| 2026-05-08 02:35 | 4.96716 | -74.42428 | 12182 ft | 261 kts | 139° |
| 2026-05-08 02:35 | 4.95338 | -74.41274 | 11970 ft | 251 kts | 139° |
| 2026-05-08 02:35 | 4.94035 | -74.40181 | 11904 ft | 237 kts | 139° |
| 2026-05-08 02:36 | 4.92794 | -74.39140 | 11870 ft | 229 kts | 139° |
| 2026-05-08 02:36 | 4.91580 | -74.38124 | 11879 ft | 231 kts | 139° |
| 2026-05-08 02:36 | 4.90340 | -74.37085 | 11872 ft | 232 kts | 139° |
| 2026-05-08 02:36 | 4.89101 | -74.36048 | 11904 ft | 232 kts | 139° |
| 2026-05-08 02:37 | 4.87860 | -74.35008 | 11896 ft | 232 kts | 139° |
| 2026-05-08 02:37 | 4.86620 | -74.33970 | 11899 ft | 233 kts | 139° |
| 2026-05-08 02:37 | 4.85377 | -74.32967 | 11889 ft | 224 kts | 146° |
| 2026-05-08 02:37 | 4.84003 | -74.32353 | 11909 ft | 216 kts | 161° |
| 2026-05-08 02:38 | 4.82659 | -74.31718 | 11866 ft | 209 kts | 143° |
| 2026-05-08 02:38 | 4.81589 | -74.30759 | 11689 ft | 204 kts | 131° |
| 2026-05-08 02:38 | 4.80683 | -74.29682 | 11394 ft | 197 kts | 127° |
| 2026-05-08 02:38 | 4.79890 | -74.28651 | 11178 ft | 181 kts | 126° |
| 2026-05-08 02:39 | 4.79137 | -74.27648 | 10932 ft | 180 kts | 126° |
| 2026-05-08 02:39 | 4.78386 | -74.26639 | 10702 ft | 181 kts | 126° |
| 2026-05-08 02:39 | 4.77629 | -74.25626 | 10465 ft | 181 kts | 125° |
| 2026-05-08 02:39 | 4.76873 | -74.24615 | 10225 ft | 181 kts | 126° |
| 2026-05-08 02:40 | 4.76124 | -74.23622 | 9987 ft | 180 kts | 126° |
| 2026-05-08 02:40 | 4.75369 | -74.22624 | 9747 ft | 179 kts | 126° |
| 2026-05-08 02:40 | 4.74618 | -74.21630 | 9510 ft | 178 kts | 127° |
| 2026-05-08 02:40 | 4.73868 | -74.20638 | 9280 ft | 178 kts | 127° |
| 2026-05-08 02:41 | 4.73121 | -74.19651 | 9047 ft | 177 kts | 127° |
| 2026-05-08 02:41 | 4.72385 | -74.18680 | 8812 ft | 176 kts | 127° |
| 2026-05-08 02:41 | 4.71636 | -74.17708 | 8575 ft | 176 kts | 127° |
| 2026-05-08 02:41 | 4.70907 | -74.16737 | 8407 ft | 173 kts | 124° |
| 2026-05-08 02:42 | 4.70252 | -74.15855 | 8371 ft | 120 kts | 127° |
| 2026-05-08 02:42 | 4.69918 | -74.15413 | 8373 ft | 58 kts | 127° |
| 2026-05-08 02:42 | 4.69736 | -74.15120 | 8372 ft | 40 kts | 103° |
| 2026-05-08 02:42 | 4.69712 | -74.14963 | 8370 ft | 16 kts | 97° |
| 2026-05-08 02:43 | 4.69712 | -74.14871 | 8370 ft | 12 kts | 68° |
| 2026-05-08 02:43 | 4.69763 | -74.14814 | 8370 ft | 10 kts | 40° |
| 2026-05-08 02:43 | 4.69816 | -74.14772 | 8370 ft | 9 kts | 38° |
| 2026-05-08 02:43 | 4.69864 | -74.14736 | 8370 ft | 8 kts | 37° |
| 2026-05-08 02:44 | 4.69907 | -74.14704 | 8370 ft | 7 kts | 37° |
| 2026-05-08 02:44 | 4.69944 | -74.14676 | 8370 ft | 6 kts | 37° |
| 2026-05-08 02:44 | 4.69977 | -74.14651 | 8370 ft | 5 kts | 37° |
| 2026-05-08 02:44 | 4.70006 | -74.14629 | 8370 ft | 5 kts | 37° |
| 2026-05-08 02:45 | 4.70032 | -74.14610 | 8370 ft | 5 kts | 37° |
| 2026-05-08 02:45 | 4.70054 | -74.14585 | 8370 ft | 5 kts | 67° |
| 2026-05-08 02:45 | 4.70048 | -74.14552 | 8370 ft | 5 kts | 116° |
| 2026-05-08 02:45 | 4.70025 | -74.14519 | 8370 ft | 6 kts | 127° |
| 2026-05-08 02:46 | 4.69998 | -74.14482 | 8370 ft | 7 kts | 127° |
| 2026-05-08 02:46 | 4.69967 | -74.14441 | 8370 ft | 7 kts | 126° |
| 2026-05-08 02:46 | 4.69943 | -74.14417 | 8370 ft | 2 kts | 170° |
| 2026-05-08 02:46 | 4.69924 | -74.14422 | 8370 ft | 4 kts | 200° |
| 2026-05-08 02:47 | 4.69906 | -74.14436 | 8370 ft | 3 kts | 220° |
| 2026-05-08 02:47 | 4.69892 | -74.14450 | 8370 ft | 3 kts | 226° |
| 2026-05-08 02:47 | 4.69888 | -74.14455 | 8370 ft | 0 kts | 226° |